Time,TemperatureF,DewpointF,PressureIn,WindDirection,WindDirectionDegrees,WindSpeedMPH,WindSpeedGustMPH,Humidity,HourlyPrecipIn,Conditions,Clouds,dailyrainin,SoftwareType,DateUTC
2013-01-30 00:01:00,54.0,53.1,29.48,SW,225,4.5,4.5,97,0.00,RMK 69.1/42.0,,0.85,WUHU21623XXSP,2013-01-30 05:01:00,
2013-01-30 00:02:00,54.0,53.1,29.48,SW,225,4.5,4.5,97,0.00,RMK 69.1/42.0,,0.00,WUHU21623XXSP,2013-01-30 05:02:00,
2013-01-30 00:03:00,54.0,53.1,29.48,SE,135,6.3,6.3,97,0.00,RMK 69.1/41.0,,0.00,WUHU21623XXSP,2013-01-30 05:03:00,
2013-01-30 00:08:00,54.2,53.3,29.48,South,180,5.1,6.3,97,0.00,RMK 69.1/41.0,,0.00,WUHU21623XXSP,2013-01-30 05:08:00,
2013-01-30 00:13:00,54.4,53.5,29.47,SSW,202,3.8,6.0,97,0.00,RMK 69.1/41.0,,0.00,WUHU21623XXSP,2013-01-30 05:13:00,
2013-01-30 00:18:00,54.4,53.5,29.47,SSW,202,1.1,4.7,97,0.00,RMK 69.1/41.0,,0.00,WUHU21623XXSP,2013-01-30 05:18:00,
2013-01-30 00:23:00,54.4,53.5,29.47,South,180,5.6,5.6,97,0.00,RMK 69.1/41.0,,0.00,WUHU21623XXSP,2013-01-30 05:23:00,
2013-01-30 00:28:00,54.4,53.5,29.46,SW,225,3.6,5.6,97,0.00,RMK 69.1/41.0,,0.00,WUHU21623XXSP,2013-01-30 05:28:00,
2013-01-30 00:33:00,54.2,53.3,29.46,South,180,2.7,3.6,97,0.00,RMK 69.1/41.0,,0.00,WUHU21623XXSP,2013-01-30 05:33:00,
2013-01-30 00:38:00,54.2,53.3,29.45,South,180,2.0,4.9,97,0.00,RMK 69.1/41.0,,0.00,WUHU21623XXSP,2013-01-30 05:38:00,
2013-01-30 00:43:00,54.0,53.1,29.44,SSW,202,2.9,4.9,97,0.00,RMK 69.1/41.0,,0.00,WUHU21623XXSP,2013-01-30 05:43:00,
2013-01-30 00:48:00,53.8,52.9,29.43,South,180,0.7,4.7,97,0.00,RMK 69.1/41.0,,0.00,WUHU21623XXSP,2013-01-30 05:48:00,
2013-01-30 00:53:00,53.8,52.7,29.43,SSW,202,3.6,3.6,96,0.00,RMK 69.1/41.0,,0.00,WUHU21623XXSP,2013-01-30 05:53:00,
2013-01-30 00:58:00,53.8,52.9,29.42,SW,225,4.0,4.3,97,0.00,RMK 69.1/41.0,,0.00,WUHU21623XXSP,2013-01-30 05:58:00,
2013-01-30 01:03:00,53.8,52.7,29.41,SSW,202,5.6,5.6,96,0.00,RMK 69.1/41.0,,0.00,WUHU21623XXSP,2013-01-30 06:03:00,
2013-01-30 01:08:00,53.8,52.7,29.41,SW,225,5.1,5.6,96,0.00,RMK 69.1/41.0,,0.00,WUHU21623XXSP,2013-01-30 06:08:00,
2013-01-30 01:13:00,53.8,52.7,29.40,WSW,247,5.8,9.6,96,0.00,RMK 69.1/41.0,,0.00,WUHU21623XXSP,2013-01-30 06:13:00,
2013-01-30 01:18:00,53.6,52.5,29.40,SSW,202,5.8,5.8,96,0.00,RMK 69.1/41.0,,0.00,WUHU21623XXSP,2013-01-30 06:18:00,
2013-01-30 01:24:00,53.8,52.7,29.39,South,180,3.1,5.8,96,0.00,RMK 69.1/41.0,,0.00,WUHU21623XXSP,2013-01-30 06:24:00,
2013-01-30 01:29:00,53.8,52.7,29.38,SSE,157,3.4,3.4,96,0.00,RMK 69.1/41.0,,0.00,WUHU21623XXSP,2013-01-30 06:29:00,
2013-01-30 01:34:00,53.6,52.5,29.37,SSW,202,3.8,3.8,96,0.00,RMK 69.1/41.0,,0.00,WUHU21623XXSP,2013-01-30 06:34:00,
2013-01-30 01:39:00,53.6,52.5,29.36,South,180,2.5,3.8,96,0.02,RMK 69.1/41.0,,0.02,WUHU21623XXSP,2013-01-30 06:39:00,
2013-01-30 01:44:00,53.8,52.7,29.36,SE,135,3.8,3.8,96,0.02,RMK 69.1/41.0,,0.02,WUHU21623XXSP,2013-01-30 06:44:00,
2013-01-30 01:49:00,54.0,53.1,29.36,South,180,3.8,4.5,97,0.02,RMK 69.1/41.0,,0.02,WUHU21623XXSP,2013-01-30 06:49:00,
2013-01-30 01:54:00,54.2,53.3,29.35,South,180,5.8,5.8,97,0.02,RMK 69.1/41.0,,0.02,WUHU21623XXSP,2013-01-30 06:54:00,
2013-01-30 01:59:00,54.2,53.3,29.35,South,180,3.4,5.8,97,0.02,RMK 69.1/41.0,,0.02,WUHU21623XXSP,2013-01-30 06:59:00,
2013-01-30 02:04:00,54.5,53.6,29.34,SSE,157,5.1,5.4,97,0.02,RMK 69.1/41.0,,0.02,WUHU21623XXSP,2013-01-30 07:04:00,
2013-01-30 02:09:00,54.5,53.6,29.34,SE,135,6.5,6.5,97,0.02,RMK 69.1/41.0,,0.02,WUHU21623XXSP,2013-01-30 07:09:00,
2013-01-30 02:14:00,54.5,53.6,29.33,SW,225,4.7,6.5,97,0.02,RMK 69.1/41.0,,0.02,WUHU21623XXSP,2013-01-30 07:14:00,
2013-01-30 02:19:00,54.7,53.8,29.33,SSE,157,3.6,6.5,97,0.02,RMK 69.1/41.0,,0.02,WUHU21623XXSP,2013-01-30 07:19:00,
2013-01-30 02:24:00,54.7,53.8,29.32,SSW,202,2.7,4.9,97,0.02,RMK 69.1/41.0,,0.02,WUHU21623XXSP,2013-01-30 07:24:00,
2013-01-30 02:29:00,54.7,53.8,29.32,South,180,7.4,7.4,97,0.04,RMK 69.1/41.0,,0.04,WUHU21623XXSP,2013-01-30 07:29:00,
2013-01-30 02:34:00,55.1,54.2,29.31,SE,135,2.9,7.4,97,0.02,RMK 69.1/41.0,,0.04,WUHU21623XXSP,2013-01-30 07:34:00,
2013-01-30 02:39:00,54.9,54.0,29.32,SSE,157,3.8,5.4,97,0.02,RMK 69.1/41.0,,0.04,WUHU21623XXSP,2013-01-30 07:39:00,
2013-01-30 02:44:00,55.3,54.4,29.31,SSW,202,5.6,5.6,97,0.02,RMK 69.1/41.0,,0.04,WUHU21623XXSP,2013-01-30 07:44:00,
2013-01-30 02:49:00,55.3,54.4,29.31,South,180,1.3,5.6,97,0.02,RMK 69.1/41.0,,0.04,WUHU21623XXSP,2013-01-30 07:49:00,
2013-01-30 02:54:00,55.4,54.5,29.32,SSE,157,4.3,4.7,97,0.02,RMK 68.9/41.0,,0.04,WUHU21623XXSP,2013-01-30 07:54:00,
2013-01-30 02:59:00,55.4,54.5,29.31,SSW,202,6.7,6.7,97,0.02,RMK 69.1/41.0,,0.04,WUHU21623XXSP,2013-01-30 07:59:00,
2013-01-30 03:04:00,55.6,54.4,29.31,SW,225,1.1,6.7,96,0.02,RMK 69.1/41.0,,0.04,WUHU21623XXSP,2013-01-30 08:04:00,
2013-01-30 03:09:00,55.6,54.4,29.30,SSE,157,0.0,6.7,96,0.02,RMK 69.1/41.0,,0.04,WUHU21623XXSP,2013-01-30 08:09:00,
2013-01-30 03:14:00,55.8,54.6,29.30,SSE,157,3.4,3.4,96,0.06,RMK 69.1/41.0,,0.08,WUHU21623XXSP,2013-01-30 08:14:00,
2013-01-30 03:19:00,56.2,55.3,29.30,WSW,247,4.3,5.1,97,0.06,RMK 69.1/41.0,,0.08,WUHU21623XXSP,2013-01-30 08:19:00,
2013-01-30 03:24:00,56.3,55.1,29.30,SW,225,0.0,5.4,96,0.06,RMK 69.1/41.0,,0.08,WUHU21623XXSP,2013-01-30 08:24:00,
2013-01-30 03:29:00,56.0,54.8,29.32,NW,315,0.9,5.4,96,0.04,RMK 69.1/41.0,,0.08,WUHU21623XXSP,2013-01-30 08:29:00,
2013-01-30 03:34:00,56.0,54.8,29.31,NW,315,0.0,0.9,96,0.04,RMK 69.1/41.0,,0.08,WUHU21623XXSP,2013-01-30 08:34:00,
2013-01-30 03:39:00,55.6,54.4,29.33,WNW,292,7.2,7.2,96,0.21,RMK 69.1/41.0,,0.25,WUHU21623XXSP,2013-01-30 08:39:00,
2013-01-30 03:44:00,55.1,53.9,29.33,NW,315,4.9,7.2,96,0.23,RMK 69.1/41.0,,0.27,WUHU21623XXSP,2013-01-30 08:44:00,
2013-01-30 03:49:00,54.2,53.0,29.34,North,0,6.9,6.9,96,0.25,RMK 69.1/41.0,,0.29,WUHU21623XXSP,2013-01-30 08:49:00,
2013-01-30 03:54:00,53.5,52.4,29.34,NNW,337,0.0,6.9,96,0.25,RMK 69.1/41.0,,0.29,WUHU21623XXSP,2013-01-30 08:54:00,
2013-01-30 03:59:00,52.9,51.8,29.34,NNW,337,3.6,3.6,96,0.25,RMK 69.1/41.0,,0.29,WUHU21623XXSP,2013-01-30 08:59:00,
2013-01-30 04:04:00,52.4,51.3,29.34,NNW,337,5.1,13.2,96,0.25,RMK 69.1/41.0,,0.29,WUHU21623XXSP,2013-01-30 09:04:00,
2013-01-30 04:09:00,52.0,50.9,29.34,North,0,6.5,13.2,96,0.21,RMK 69.1/41.0,,0.29,WUHU21623XXSP,2013-01-30 09:09:00,
2013-01-30 04:14:00,51.7,50.6,29.34,NW,315,4.9,11.9,96,0.23,RMK 69.1/41.0,,0.31,WUHU21623XXSP,2013-01-30 09:14:00,
2013-01-30 04:19:00,51.3,50.2,29.33,North,0,0.9,4.9,96,0.27,RMK 69.1/41.0,,0.35,WUHU21623XXSP,2013-01-30 09:19:00,
2013-01-30 04:24:00,51.1,50.0,29.33,NW,315,4.7,4.7,96,0.27,RMK 68.9/41.0,,0.35,WUHU21623XXSP,2013-01-30 09:24:00,
2013-01-30 04:29:00,50.9,49.8,29.32,NNW,337,6.3,6.3,96,0.27,RMK 68.9/41.0,,0.35,WUHU21623XXSP,2013-01-30 09:29:00,
2013-01-30 04:34:00,50.6,49.5,29.33,WNW,292,0.0,6.3,96,0.10,RMK 68.9/41.0,,0.35,WUHU21623XXSP,2013-01-30 09:34:00,
2013-01-30 04:39:00,50.4,49.3,29.33,NNW,337,0.0,0.0,96,0.08,RMK 68.9/41.0,,0.35,WUHU21623XXSP,2013-01-30 09:39:00,
2013-01-30 04:44:00,50.2,49.1,29.34,WNW,292,0.0,0.0,96,0.06,RMK 68.9/41.0,,0.35,WUHU21623XXSP,2013-01-30 09:44:00,
2013-01-30 04:50:00,50.0,48.9,29.34,NNW,337,0.0,0.0,96,0.06,RMK 68.9/41.0,,0.35,WUHU21623XXSP,2013-01-30 09:50:00,
2013-01-30 04:55:00,50.0,48.9,29.34,WNW,292,0.0,0.0,96,0.06,RMK 68.9/41.0,,0.35,WUHU21623XXSP,2013-01-30 09:55:00,
2013-01-30 05:00:00,50.0,48.9,29.34,WNW,292,0.0,0.0,96,0.06,RMK 68.9/41.0,,0.35,WUHU21623XXSP,2013-01-30 10:00:00,
2013-01-30 05:05:00,49.9,48.8,29.34,WNW,292,0.0,0.0,96,0.06,RMK 68.9/41.0,,0.35,WUHU21623XXSP,2013-01-30 10:05:00,
2013-01-30 05:10:00,49.9,48.8,29.34,WNW,292,0.0,0.0,96,0.04,RMK 68.9/41.0,,0.35,WUHU21623XXSP,2013-01-30 10:10:00,
2013-01-30 05:15:00,49.7,48.6,29.34,WNW,292,0.0,0.0,96,0.06,RMK 68.9/41.0,,0.37,WUHU21623XXSP,2013-01-30 10:15:00,
2013-01-30 05:20:00,49.5,48.4,29.34,WNW,292,0.0,0.0,96,0.02,RMK 68.7/41.0,,0.37,WUHU21623XXSP,2013-01-30 10:20:00,
2013-01-30 05:25:00,49.3,48.2,29.35,WNW,292,0.0,0.0,96,0.02,RMK 68.7/41.0,,0.37,WUHU21623XXSP,2013-01-30 10:25:00,
2013-01-30 05:30:00,49.3,48.2,29.35,WNW,292,0.0,0.0,96,0.02,RMK 68.7/42.0,,0.37,WUHU21623XXSP,2013-01-30 10:30:00,
2013-01-30 05:35:00,49.1,48.0,29.37,WNW,292,0.0,0.0,96,0.04,RMK 68.7/42.0,,0.39,WUHU21623XXSP,2013-01-30 10:35:00,
2013-01-30 05:40:00,49.1,48.0,29.37,NNW,337,0.0,0.0,96,0.04,RMK 68.7/42.0,,0.39,WUHU21623XXSP,2013-01-30 10:40:00,
2013-01-30 05:45:00,49.1,48.0,29.37,NW,315,0.0,0.0,96,0.04,RMK 68.7/42.0,,0.39,WUHU21623XXSP,2013-01-30 10:45:00,
2013-01-30 05:50:00,49.1,48.0,29.37,NW,315,0.0,0.0,96,0.04,RMK 68.9/42.0,,0.39,WUHU21623XXSP,2013-01-30 10:50:00,
2013-01-30 05:55:00,49.1,48.0,29.38,WNW,292,0.0,0.0,96,0.04,RMK 68.9/42.0,,0.39,WUHU21623XXSP,2013-01-30 10:55:00,
2013-01-30 06:00:00,49.1,48.0,29.38,NW,315,0.0,0.0,96,0.06,RMK 69.1/42.0,,0.41,WUHU21623XXSP,2013-01-30 11:00:00,
2013-01-30 06:05:00,49.1,48.0,29.36,WNW,292,0.0,0.0,96,0.06,RMK 69.1/42.0,,0.41,WUHU21623XXSP,2013-01-30 11:05:00,
2013-01-30 06:10:00,49.0,47.9,29.36,WNW,292,0.0,0.0,96,0.04,RMK 69.3/42.0,,0.41,WUHU21623XXSP,2013-01-30 11:10:00,
2013-01-30 06:15:00,48.8,47.7,29.36,WNW,292,0.0,0.0,96,0.04,RMK 69.3/42.0,,0.41,WUHU21623XXSP,2013-01-30 11:15:00,
2013-01-30 06:20:00,48.8,47.7,29.35,WNW,292,0.0,0.0,96,0.06,RMK 69.4/42.0,,0.43,WUHU21623XXSP,2013-01-30 11:20:00,
2013-01-30 06:25:00,48.6,47.5,29.35,WNW,292,0.0,0.0,96,0.06,RMK 69.4/42.0,,0.43,WUHU21623XXSP,2013-01-30 11:25:00,
2013-01-30 06:30:00,48.4,47.3,29.35,WNW,292,0.0,0.0,96,0.04,RMK 69.4/42.0,,0.43,WUHU21623XXSP,2013-01-30 11:30:00,
2013-01-30 06:35:00,48.2,47.1,29.35,WNW,292,0.0,0.0,96,0.04,RMK 69.6/42.0,,0.43,WUHU21623XXSP,2013-01-30 11:35:00,
2013-01-30 06:40:00,48.2,47.1,29.35,WNW,292,0.0,0.0,96,0.06,RMK 69.6/42.0,,0.45,WUHU21623XXSP,2013-01-30 11:40:00,
2013-01-30 06:45:00,48.2,47.1,29.34,WNW,292,0.0,0.0,96,0.06,RMK 69.6/42.0,,0.45,WUHU21623XXSP,2013-01-30 11:45:00,
2013-01-30 06:50:00,48.2,47.1,29.33,WNW,292,0.0,0.0,96,0.06,RMK 69.6/41.0,,0.45,WUHU21623XXSP,2013-01-30 11:50:00,
2013-01-30 06:55:00,48.1,47.0,29.33,WNW,292,0.0,0.0,96,0.06,RMK 69.6/41.0,,0.47,WUHU21623XXSP,2013-01-30 11:55:00,
2013-01-30 07:00:00,47.9,46.8,29.34,WNW,292,0.0,0.0,96,0.06,RMK 69.8/41.0,,0.47,WUHU21623XXSP,2013-01-30 12:00:00,
2013-01-30 07:05:00,47.9,46.8,29.34,WNW,292,0.0,0.0,96,0.06,RMK 69.8/41.0,,0.47,WUHU21623XXSP,2013-01-30 12:05:00,
2013-01-30 07:10:00,47.9,46.8,29.34,WNW,292,0.0,0.0,96,0.06,RMK 69.6/41.0,,0.47,WUHU21623XXSP,2013-01-30 12:10:00,
2013-01-30 07:15:00,47.7,46.6,29.33,WNW,292,0.0,0.0,96,0.06,RMK 69.6/41.0,,0.47,WUHU21623XXSP,2013-01-30 12:15:00,
2013-01-30 07:20:00,47.3,46.2,29.33,WNW,292,0.0,0.0,96,0.04,RMK 69.6/41.0,,0.47,WUHU21623XXSP,2013-01-30 12:20:00,
2013-01-30 07:25:00,47.3,46.2,29.33,WNW,292,0.0,0.0,96,0.04,RMK 69.6/41.0,,0.47,WUHU21623XXSP,2013-01-30 12:25:00,
2013-01-30 07:30:00,47.3,46.2,29.33,WNW,292,0.0,0.0,96,0.04,RMK 69.4/41.0,,0.47,WUHU21623XXSP,2013-01-30 12:30:00,
2013-01-30 07:35:00,47.3,46.2,29.32,WNW,292,0.0,0.0,96,0.02,RMK 69.4/41.0,,0.47,WUHU21623XXSP,2013-01-30 12:35:00,
2013-01-30 07:40:00,47.3,46.2,29.32,WNW,292,0.0,0.0,96,0.02,RMK 69.4/41.0,,0.47,WUHU21623XXSP,2013-01-30 12:40:00,
2013-01-30 07:45:00,47.5,46.4,29.32,SSW,202,0.0,0.0,96,0.02,RMK 69.4/41.0,,0.47,WUHU21623XXSP,2013-01-30 12:45:00,
2013-01-30 07:50:00,47.7,46.6,29.32,SSW,202,0.0,0.0,96,0.02,RMK 69.4/41.0,,0.47,WUHU21623XXSP,2013-01-30 12:50:00,
2013-01-30 07:55:00,47.5,46.4,29.30,SSW,202,0.0,0.0,96,0.00,RMK 69.4/41.0,,0.47,WUHU21623XXSP,2013-01-30 12:55:00,
2013-01-30 08:00:00,47.5,46.4,29.29,SSW,202,0.0,0.0,96,0.00,RMK 69.4/41.0,,0.47,WUHU21623XXSP,2013-01-30 13:00:00,
2013-01-30 08:05:00,47.5,46.4,29.29,SSW,202,0.0,0.0,96,0.00,RMK 69.3/41.0,,0.47,WUHU21623XXSP,2013-01-30 13:05:00,
2013-01-30 08:10:00,47.3,46.2,29.28,SSW,202,0.0,0.0,96,0.00,RMK 69.3/41.0,,0.47,WUHU21623XXSP,2013-01-30 13:10:00,
2013-01-30 08:15:00,47.3,46.2,29.28,SSW,202,0.0,0.0,96,0.00,RMK 69.3/41.0,,0.47,WUHU21623XXSP,2013-01-30 13:15:00,
2013-01-30 08:20:00,47.3,46.2,29.28,SSW,202,0.0,0.0,96,0.00,RMK 69.3/41.0,,0.47,WUHU21623XXSP,2013-01-30 13:20:00,
2013-01-30 08:25:00,47.3,46.2,29.26,South,180,0.0,0.0,96,0.00,RMK 69.1/41.0,,0.47,WUHU21623XXSP,2013-01-30 13:25:00,
2013-01-30 08:30:00,47.3,46.2,29.27,South,180,0.0,0.0,96,0.00,RMK 69.1/41.0,,0.47,WUHU21623XXSP,2013-01-30 13:30:00,
2013-01-30 08:35:00,47.3,46.2,29.29,South,180,0.0,0.0,96,0.00,RMK 69.1/41.0,,0.47,WUHU21623XXSP,2013-01-30 13:35:00,
2013-01-30 08:40:00,47.3,46.2,29.30,SW,225,0.0,0.0,96,0.00,RMK 69.1/41.0,,0.47,WUHU21623XXSP,2013-01-30 13:40:00,
2013-01-30 08:45:00,47.3,46.2,29.32,SW,225,0.0,0.0,96,0.00,RMK 69.1/41.0,,0.47,WUHU21623XXSP,2013-01-30 13:45:00,
2013-01-30 08:50:00,47.3,46.2,29.31,SW,225,0.0,0.0,96,0.00,RMK 68.9/41.0,,0.47,WUHU21623XXSP,2013-01-30 13:50:00,
2013-01-30 08:55:00,47.3,46.2,29.30,SW,225,0.0,0.0,96,0.00,RMK 68.9/41.0,,0.47,WUHU21623XXSP,2013-01-30 13:55:00,
2013-01-30 09:00:00,47.2,46.1,29.27,SW,225,0.0,0.0,96,0.00,RMK 68.9/41.0,,0.47,WUHU21623XXSP,2013-01-30 14:00:00,
2013-01-30 09:05:00,47.2,46.1,29.28,WSW,247,0.0,0.0,96,0.00,RMK 68.9/41.0,,0.47,WUHU21623XXSP,2013-01-30 14:05:00,
2013-01-30 09:10:00,47.3,46.2,29.27,WSW,247,0.0,0.0,96,0.00,RMK 68.7/41.0,,0.47,WUHU21623XXSP,2013-01-30 14:10:00,
2013-01-30 09:15:00,47.2,46.1,29.28,WSW,247,0.0,0.0,96,0.00,RMK 68.7/41.0,,0.47,WUHU21623XXSP,2013-01-30 14:15:00,
2013-01-30 09:20:00,47.2,46.4,29.28,WSW,247,0.0,0.0,97,0.00,RMK 68.7/41.0,,0.47,WUHU21623XXSP,2013-01-30 14:20:00,
2013-01-30 09:25:00,47.2,46.1,29.27,WSW,247,0.0,0.0,96,0.00,RMK 68.7/41.0,,0.47,WUHU21623XXSP,2013-01-30 14:25:00,
2013-01-30 09:30:00,47.3,46.5,29.27,SE,135,0.0,0.0,97,0.00,RMK 68.7/41.0,,0.47,WUHU21623XXSP,2013-01-30 14:30:00,
2013-01-30 09:35:00,47.3,46.5,29.30,SSW,202,0.0,0.0,97,0.00,RMK 68.7/41.0,,0.47,WUHU21623XXSP,2013-01-30 14:35:00,
2013-01-30 09:40:00,47.5,46.7,29.31,SW,225,0.0,0.0,97,0.00,RMK 68.7/41.0,,0.47,WUHU21623XXSP,2013-01-30 14:40:00,
2013-01-30 09:45:00,47.7,46.9,29.32,West,270,0.0,0.0,97,0.00,RMK 68.7/41.0,,0.47,WUHU21623XXSP,2013-01-30 14:45:00,
2013-01-30 09:50:00,47.7,46.9,29.32,NW,315,0.0,0.0,97,0.00,RMK 68.7/41.0,,0.47,WUHU21623XXSP,2013-01-30 14:50:00,
2013-01-30 09:55:00,47.9,47.1,29.32,WSW,247,0.0,0.0,97,0.00,RMK 68.5/41.0,,0.47,WUHU21623XXSP,2013-01-30 14:55:00,
2013-01-30 10:00:00,47.9,47.1,29.31,SW,225,0.0,0.0,97,0.00,RMK 68.5/41.0,,0.47,WUHU21623XXSP,2013-01-30 15:00:00,
2013-01-30 10:05:00,47.9,47.1,29.34,SW,225,0.0,0.0,97,0.00,RMK 68.5/41.0,,0.47,WUHU21623XXSP,2013-01-30 15:05:00,
2013-01-30 10:10:00,47.7,46.9,29.31,SSW,202,0.0,0.0,97,0.00,RMK 68.5/41.0,,0.47,WUHU21623XXSP,2013-01-30 15:10:00,
2013-01-30 10:15:00,47.9,47.1,29.33,WSW,247,0.0,0.0,97,0.00,RMK 68.5/41.0,,0.47,WUHU21623XXSP,2013-01-30 15:15:00,
2013-01-30 10:20:00,47.9,47.1,29.34,WSW,247,0.0,0.0,97,0.00,RMK 68.5/41.0,,0.47,WUHU21623XXSP,2013-01-30 15:20:00,
2013-01-30 10:25:00,47.9,47.1,29.34,WSW,247,0.0,0.0,97,0.00,RMK 68.4/41.0,,0.47,WUHU21623XXSP,2013-01-30 15:25:00,
2013-01-30 10:30:00,47.9,47.1,29.33,WSW,247,0.0,0.0,97,0.00,RMK 68.5/41.0,,0.47,WUHU21623XXSP,2013-01-30 15:30:00,
2013-01-30 10:35:00,48.1,47.3,29.34,SW,225,0.0,0.0,97,0.00,RMK 68.4/41.0,,0.47,WUHU21623XXSP,2013-01-30 15:35:00,
2013-01-30 10:40:00,48.2,47.4,29.35,SSW,202,0.0,0.0,97,0.00,RMK 68.4/41.0,,0.47,WUHU21623XXSP,2013-01-30 15:40:00,
2013-01-30 10:45:00,48.2,47.4,29.35,SSW,202,3.4,3.4,97,0.00,RMK 68.4/41.0,,0.47,WUHU21623XXSP,2013-01-30 15:45:00,
2013-01-30 10:50:00,48.2,47.4,29.34,SSW,202,0.0,3.4,97,0.00,RMK 68.4/41.0,,0.47,WUHU21623XXSP,2013-01-30 15:50:00,
2013-01-30 10:56:00,48.2,47.4,29.34,SW,225,0.0,0.0,97,0.00,RMK 68.4/41.0,,0.47,WUHU21623XXSP,2013-01-30 15:56:00,
2013-01-30 11:01:00,48.2,47.4,29.34,SW,225,0.0,0.0,97,0.00,RMK 68.4/41.0,,0.47,WUHU21623XXSP,2013-01-30 16:01:00,
2013-01-30 11:06:00,48.4,47.6,29.32,SSW,202,0.0,0.0,97,0.00,RMK 68.4/41.0,,0.47,WUHU21623XXSP,2013-01-30 16:06:00,
2013-01-30 11:11:00,48.4,47.6,29.33,SSW,202,0.0,0.0,97,0.00,RMK 68.4/41.0,,0.47,WUHU21623XXSP,2013-01-30 16:11:00,
2013-01-30 11:16:00,48.4,47.6,29.31,SW,225,0.0,0.0,97,0.00,RMK 68.4/41.0,,0.47,WUHU21623XXSP,2013-01-30 16:16:00,
2013-01-30 11:21:00,48.4,47.6,29.32,SW,225,0.0,0.0,97,0.00,RMK 68.4/41.0,,0.47,WUHU21623XXSP,2013-01-30 16:21:00,
2013-01-30 11:26:00,48.6,47.8,29.31,SW,225,0.0,0.0,97,0.00,RMK 68.4/41.0,,0.47,WUHU21623XXSP,2013-01-30 16:26:00,
2013-01-30 11:31:00,48.8,48.0,29.31,SW,225,0.0,0.0,97,0.00,RMK 68.4/41.0,,0.47,WUHU21623XXSP,2013-01-30 16:31:00,
2013-01-30 11:36:00,49.1,48.3,29.30,SW,225,2.7,2.7,97,0.00,RMK 68.4/41.0,,0.47,WUHU21623XXSP,2013-01-30 16:36:00,
2013-01-30 11:41:00,49.3,48.5,29.28,WSW,247,0.0,2.7,97,0.00,RMK 68.4/41.0,,0.47,WUHU21623XXSP,2013-01-30 16:41:00,
2013-01-30 11:46:00,49.3,48.5,29.28,SW,225,0.0,1.8,97,0.00,RMK 68.4/41.0,,0.47,WUHU21623XXSP,2013-01-30 16:46:00,
2013-01-30 11:51:00,49.3,48.5,29.27,SW,225,0.0,0.0,97,0.00,RMK 68.4/41.0,,0.47,WUHU21623XXSP,2013-01-30 16:51:00,
2013-01-30 11:56:00,49.7,48.9,29.28,SW,225,0.0,0.0,97,0.00,RMK 68.4/41.0,,0.47,WUHU21623XXSP,2013-01-30 16:56:00,
2013-01-30 12:01:00,49.7,48.9,29.28,SW,225,0.0,0.0,97,0.00,RMK 68.4/41.0,,0.47,WUHU21623XXSP,2013-01-30 17:01:00,
2013-01-30 12:06:00,49.7,48.9,29.29,SSW,202,0.0,0.0,97,0.00,RMK 68.4/41.0,,0.47,WUHU21623XXSP,2013-01-30 17:06:00,
2013-01-30 12:11:00,49.9,49.1,29.28,SW,225,0.0,0.0,97,0.00,RMK 68.4/41.0,,0.47,WUHU21623XXSP,2013-01-30 17:11:00,
2013-01-30 12:16:00,49.9,49.1,29.28,SW,225,0.0,0.0,97,0.00,RMK 68.4/41.0,,0.47,WUHU21623XXSP,2013-01-30 17:16:00,
2013-01-30 12:21:00,49.9,49.1,29.28,SW,225,0.0,0.0,97,0.00,RMK 68.4/41.0,,0.47,WUHU21623XXSP,2013-01-30 17:21:00,
2013-01-30 12:26:00,49.9,49.1,29.28,South,180,0.0,0.0,97,0.00,RMK 68.4/41.0,,0.47,WUHU21623XXSP,2013-01-30 17:26:00,
2013-01-30 12:31:00,49.9,49.1,29.28,WSW,247,0.0,0.0,97,0.00,RMK 68.4/41.0,,0.47,WUHU21623XXSP,2013-01-30 17:31:00,
2013-01-30 12:36:00,49.9,49.1,29.28,SSW,202,0.0,0.0,97,0.00,RMK 68.4/41.0,,0.47,WUHU21623XXSP,2013-01-30 17:36:00,
2013-01-30 12:41:00,49.9,49.1,29.27,SSW,202,0.0,0.0,97,0.00,RMK 68.4/41.0,,0.47,WUHU21623XXSP,2013-01-30 17:41:00,
2013-01-30 12:46:00,49.9,49.1,29.25,SW,225,4.3,4.3,97,0.00,RMK 68.4/41.0,,0.47,WUHU21623XXSP,2013-01-30 17:46:00,
2013-01-30 12:51:00,50.0,49.2,29.25,SSW,202,0.0,4.3,97,0.00,RMK 68.4/41.0,,0.47,WUHU21623XXSP,2013-01-30 17:51:00,
2013-01-30 12:56:00,50.0,49.2,29.25,WSW,247,0.0,0.0,97,0.00,RMK 68.4/41.0,,0.47,WUHU21623XXSP,2013-01-30 17:56:00,
2013-01-30 13:01:00,50.0,49.2,29.24,WSW,247,0.0,0.0,97,0.00,RMK 68.4/41.0,,0.47,WUHU21623XXSP,2013-01-30 18:01:00,
2013-01-30 13:06:00,49.9,49.1,29.22,South,180,0.0,0.0,97,0.00,RMK 68.4/41.0,,0.47,WUHU21623XXSP,2013-01-30 18:06:00,
2013-01-30 13:11:00,50.0,49.2,29.23,South,180,0.0,0.0,97,0.00,RMK 68.4/41.0,,0.47,WUHU21623XXSP,2013-01-30 18:11:00,
2013-01-30 13:16:00,49.9,49.1,29.22,SW,225,0.0,0.0,97,0.00,RMK 68.4/41.0,,0.47,WUHU21623XXSP,2013-01-30 18:16:00,
2013-01-30 13:21:00,49.9,49.1,29.23,SW,225,0.0,0.0,97,0.00,RMK 68.4/41.0,,0.47,WUHU21623XXSP,2013-01-30 18:21:00,
2013-01-30 13:26:00,49.9,49.1,29.23,SSE,157,0.0,0.0,97,0.00,RMK 68.4/41.0,,0.47,WUHU21623XXSP,2013-01-30 18:26:00,
2013-01-30 13:31:00,49.9,49.1,29.24,SW,225,0.0,0.0,97,0.00,RMK 68.4/41.0,,0.47,WUHU21623XXSP,2013-01-30 18:31:00,
2013-01-30 13:36:00,49.9,49.1,29.24,SSW,202,0.0,0.0,97,0.00,RMK 68.4/41.0,,0.47,WUHU21623XXSP,2013-01-30 18:36:00,
2013-01-30 13:41:00,49.9,49.1,29.24,South,180,0.0,0.0,97,0.00,RMK 68.4/41.0,,0.47,WUHU21623XXSP,2013-01-30 18:41:00,
2013-01-30 13:46:00,49.9,49.1,29.23,South,180,0.0,0.0,97,0.00,RMK 68.4/41.0,,0.47,WUHU21623XXSP,2013-01-30 18:46:00,
2013-01-30 13:51:00,49.9,49.1,29.23,SSW,202,2.5,2.5,97,0.00,RMK 68.4/41.0,,0.47,WUHU21623XXSP,2013-01-30 18:51:00,
2013-01-30 13:56:00,49.9,49.1,29.24,SW,225,4.3,8.3,97,0.00,RMK 68.4/41.0,,0.47,WUHU21623XXSP,2013-01-30 18:56:00,
2013-01-30 14:01:00,49.9,49.1,29.23,SSW,202,5.4,5.8,97,0.00,RMK 68.4/41.0,,0.47,WUHU21623XXSP,2013-01-30 19:01:00,
2013-01-30 14:06:00,49.9,49.1,29.24,SSW,202,3.1,5.4,97,0.00,RMK 68.4/41.0,,0.47,WUHU21623XXSP,2013-01-30 19:06:00,
2013-01-30 14:11:00,49.9,48.8,29.24,SSW,202,3.1,4.5,96,0.00,RMK 68.4/41.0,,0.47,WUHU21623XXSP,2013-01-30 19:11:00,
2013-01-30 14:16:00,49.7,48.6,29.25,SW,225,2.5,3.1,96,0.00,RMK 68.4/41.0,,0.47,WUHU21623XXSP,2013-01-30 19:16:00,
2013-01-30 14:21:00,49.7,48.6,29.24,SSW,202,3.8,6.3,96,0.00,RMK 68.4/41.0,,0.47,WUHU21623XXSP,2013-01-30 19:21:00,
2013-01-30 14:26:00,49.7,48.6,29.22,South,180,6.5,6.5,96,0.00,RMK 68.4/41.0,,0.47,WUHU21623XXSP,2013-01-30 19:26:00,
2013-01-30 14:31:00,49.7,48.6,29.21,SSW,202,3.6,6.5,96,0.00,RMK 68.4/41.0,,0.47,WUHU21623XXSP,2013-01-30 19:31:00,
2013-01-30 14:36:00,49.7,48.6,29.21,SW,225,4.7,6.5,96,0.00,RMK 68.4/41.0,,0.47,WUHU21623XXSP,2013-01-30 19:36:00,
2013-01-30 14:42:00,49.3,48.2,29.21,SSW,202,2.2,4.7,96,0.00,RMK 68.4/41.0,,0.47,WUHU21623XXSP,2013-01-30 19:42:00,
2013-01-30 14:47:00,49.3,48.2,29.21,SW,225,4.5,4.7,96,0.00,RMK 68.4/41.0,,0.47,WUHU21623XXSP,2013-01-30 19:47:00,
2013-01-30 14:52:00,49.3,48.2,29.21,South,180,2.0,4.5,96,0.00,RMK 68.4/41.0,,0.47,WUHU21623XXSP,2013-01-30 19:52:00,
2013-01-30 14:57:00,49.3,48.2,29.21,SSW,202,1.3,2.0,96,0.00,RMK 68.4/41.0,,0.47,WUHU21623XXSP,2013-01-30 19:57:00,
2013-01-30 15:02:00,49.3,48.2,29.20,South,180,1.1,1.6,96,0.00,RMK 68.4/41.0,,0.47,WUHU21623XXSP,2013-01-30 20:02:00,
2013-01-30 15:07:00,49.3,48.2,29.21,SW,225,5.1,5.1,96,0.00,RMK 68.4/41.0,,0.47,WUHU21623XXSP,2013-01-30 20:07:00,
2013-01-30 15:12:00,49.3,48.2,29.21,SSW,202,3.1,5.1,96,0.00,RMK 68.4/41.0,,0.47,WUHU21623XXSP,2013-01-30 20:12:00,
2013-01-30 15:17:00,49.1,48.0,29.22,SSW,202,1.3,5.1,96,0.00,RMK 68.4/41.0,,0.47,WUHU21623XXSP,2013-01-30 20:17:00,
2013-01-30 15:22:00,49.1,48.0,29.21,SW,225,0.0,4.7,96,0.00,RMK 68.4/41.0,,0.47,WUHU21623XXSP,2013-01-30 20:22:00,
2013-01-30 15:27:00,49.1,48.0,29.21,SW,225,0.0,4.7,96,0.00,RMK 68.4/41.0,,0.47,WUHU21623XXSP,2013-01-30 20:27:00,
2013-01-30 15:32:00,49.1,48.0,29.20,SW,225,0.7,0.7,96,0.00,RMK 68.4/41.0,,0.47,WUHU21623XXSP,2013-01-30 20:32:00,
2013-01-30 15:37:00,49.1,48.0,29.18,SW,225,0.0,0.7,96,0.00,RMK 68.4/41.0,,0.47,WUHU21623XXSP,2013-01-30 20:37:00,
2013-01-30 15:42:00,49.1,48.0,29.15,South,180,1.8,6.0,96,0.00,RMK 68.4/41.0,,0.47,WUHU21623XXSP,2013-01-30 20:42:00,
2013-01-30 15:47:00,49.1,48.0,29.17,SSW,202,4.0,6.0,96,0.00,RMK 68.4/41.0,,0.47,WUHU21623XXSP,2013-01-30 20:47:00,
2013-01-30 15:52:00,49.1,48.0,29.17,SW,225,0.0,4.9,96,0.00,RMK 68.4/41.0,,0.47,WUHU21623XXSP,2013-01-30 20:52:00,
2013-01-30 15:57:00,49.1,48.0,29.18,SSW,202,3.1,3.1,96,0.00,RMK 68.4/41.0,,0.47,WUHU21623XXSP,2013-01-30 20:57:00,
2013-01-30 16:02:00,49.1,48.0,29.18,SSW,202,3.4,3.4,96,0.00,RMK 68.4/41.0,,0.47,WUHU21623XXSP,2013-01-30 21:02:00,
2013-01-30 16:07:00,49.1,48.0,29.19,SW,225,5.6,5.6,96,0.00,RMK 68.4/41.0,,0.47,WUHU21623XXSP,2013-01-30 21:07:00,
2013-01-30 16:12:00,49.1,48.0,29.20,SSW,202,4.5,5.6,96,0.00,RMK 68.4/41.0,,0.47,WUHU21623XXSP,2013-01-30 21:12:00,
2013-01-30 16:17:00,48.8,47.7,29.19,SSW,202,3.6,5.6,96,0.00,RMK 68.4/41.0,,0.47,WUHU21623XXSP,2013-01-30 21:17:00,
2013-01-30 16:22:00,49.0,47.9,29.19,SW,225,1.1,3.6,96,0.00,RMK 68.4/41.0,,0.47,WUHU21623XXSP,2013-01-30 21:22:00,
2013-01-30 16:27:00,48.8,47.7,29.18,South,180,0.0,1.1,96,0.00,RMK 68.5/41.0,,0.47,WUHU21623XXSP,2013-01-30 21:27:00,
2013-01-30 16:32:00,48.8,47.7,29.19,SSW,202,2.0,2.0,96,0.00,RMK 68.5/41.0,,0.47,WUHU21623XXSP,2013-01-30 21:32:00,
2013-01-30 16:37:00,48.8,47.7,29.19,South,180,2.9,2.9,96,0.00,RMK 68.5/42.0,,0.47,WUHU21623XXSP,2013-01-30 21:37:00,
2013-01-30 16:42:00,48.8,47.7,29.18,SW,225,1.3,2.9,96,0.00,RMK 68.5/42.0,,0.47,WUHU21623XXSP,2013-01-30 21:42:00,
2013-01-30 16:47:00,48.8,47.7,29.18,SSW,202,5.8,5.8,96,0.00,RMK 68.5/42.0,,0.47,WUHU21623XXSP,2013-01-30 21:47:00,
2013-01-30 16:52:00,48.8,47.7,29.18,SSW,202,0.0,5.8,96,0.00,RMK 68.7/42.0,,0.47,WUHU21623XXSP,2013-01-30 21:52:00,
2013-01-30 16:57:00,48.8,47.7,29.18,SW,225,4.9,4.9,96,0.00,RMK 68.7/42.0,,0.47,WUHU21623XXSP,2013-01-30 21:57:00,
2013-01-30 17:02:00,48.6,47.5,29.18,SW,225,4.7,4.9,96,0.00,RMK 68.7/42.0,,0.47,WUHU21623XXSP,2013-01-30 22:02:00,
2013-01-30 17:07:00,48.6,47.5,29.17,SSW,202,2.9,4.9,96,0.00,RMK 68.7/42.0,,0.47,WUHU21623XXSP,2013-01-30 22:07:00,
2013-01-30 17:12:00,48.6,47.2,29.17,SW,225,1.6,2.9,95,0.00,RMK 68.7/42.0,,0.47,WUHU21623XXSP,2013-01-30 22:12:00,
2013-01-30 17:17:00,48.6,47.2,29.17,SW,225,0.0,2.9,95,0.00,RMK 68.7/42.0,,0.47,WUHU21623XXSP,2013-01-30 22:17:00,
2013-01-30 17:22:00,48.6,47.2,29.16,SSW,202,2.9,2.9,95,0.00,RMK 68.7/42.0,,0.47,WUHU21623XXSP,2013-01-30 22:22:00,
2013-01-30 17:27:00,48.4,47.0,29.16,SSW,202,2.9,2.9,95,0.00,RMK 68.5/42.0,,0.47,WUHU21623XXSP,2013-01-30 22:27:00,
2013-01-30 17:32:00,48.4,47.0,29.15,South,180,1.1,10.1,95,0.00,RMK 68.5/42.0,,0.47,WUHU21623XXSP,2013-01-30 22:32:00,
2013-01-30 17:37:00,48.2,46.8,29.15,SSE,157,1.1,10.1,95,0.00,RMK 68.7/43.0,,0.47,WUHU21623XXSP,2013-01-30 22:37:00,
2013-01-30 17:42:00,48.2,46.8,29.15,SSW,202,0.0,1.1,95,0.00,RMK 68.7/43.0,,0.47,WUHU21623XXSP,2013-01-30 22:42:00,
2013-01-30 17:47:00,48.2,46.8,29.15,SSW,202,2.7,3.4,95,0.00,RMK 68.7/43.0,,0.47,WUHU21623XXSP,2013-01-30 22:47:00,
2013-01-30 17:52:00,48.2,46.5,29.14,SSW,202,4.9,4.9,94,0.00,RMK 68.7/43.0,,0.47,WUHU21623XXSP,2013-01-30 22:52:00,
2013-01-30 17:57:00,48.2,46.5,29.14,SSW,202,4.9,4.9,94,0.00,RMK 68.9/42.0,,0.47,WUHU21623XXSP,2013-01-30 22:57:00,
2013-01-30 18:02:00,48.2,46.5,29.15,SSW,202,4.9,4.9,94,0.00,RMK 68.9/42.0,,0.47,WUHU21623XXSP,2013-01-30 23:02:00,
2013-01-30 18:07:00,48.2,46.5,29.14,SSW,202,6.5,6.5,94,0.00,RMK 68.9/43.0,,0.47,WUHU21623XXSP,2013-01-30 23:07:00,
2013-01-30 18:12:00,48.2,46.5,29.13,South,180,5.6,6.5,94,0.00,RMK 68.9/43.0,,0.47,WUHU21623XXSP,2013-01-30 23:12:00,
2013-01-30 18:17:00,48.2,46.5,29.15,WSW,247,4.9,5.6,94,0.00,RMK 68.9/43.0,,0.47,WUHU21623XXSP,2013-01-30 23:17:00,
2013-01-30 18:22:00,47.9,46.2,29.15,South,180,4.7,4.9,94,0.00,RMK 68.9/44.0,,0.47,WUHU21623XXSP,2013-01-30 23:22:00,
2013-01-30 18:27:00,47.0,45.0,29.16,West,270,3.1,4.7,93,0.00,RMK 68.9/43.0,,0.47,WUHU21623XXSP,2013-01-30 23:27:00,
2013-01-30 18:32:00,46.1,44.1,29.17,SW,225,2.7,3.1,93,0.00,RMK 68.9/43.0,,0.47,WUHU21623XXSP,2013-01-30 23:32:00,
2013-01-30 18:38:00,45.7,43.7,29.16,West,270,2.0,4.5,93,0.00,RMK 69.1/43.0,,0.47,WUHU21623XXSP,2013-01-30 23:38:00,
2013-01-30 18:43:00,45.2,43.3,29.17,WSW,247,0.0,4.5,93,0.00,RMK 69.1/43.0,,0.47,WUHU21623XXSP,2013-01-30 23:43:00,
2013-01-30 18:48:00,44.5,42.3,29.16,WSW,247,0.0,3.4,92,0.02,RMK 69.1/43.0,,0.49,WUHU21623XXSP,2013-01-30 23:48:00,
2013-01-30 18:53:00,43.9,41.7,29.17,West,270,0.0,3.4,92,0.02,RMK 69.1/43.0,,0.49,WUHU21623XXSP,2013-01-30 23:53:00,
2013-01-30 18:58:00,43.6,41.7,29.17,WSW,247,0.0,3.8,93,0.02,RMK 69.1/43.0,,0.49,WUHU21623XXSP,2013-01-30 23:58:00,
2013-01-30 19:03:00,43.4,41.5,29.17,SW,225,0.7,3.8,93,0.02,RMK 69.1/43.0,,0.49,WUHU21623XXSP,2013-01-31 00:03:00,
2013-01-30 19:08:00,43.2,41.3,29.17,West,270,0.0,0.7,93,0.02,RMK 68.9/43.0,,0.49,WUHU21623XXSP,2013-01-31 00:08:00,
2013-01-30 19:13:00,43.0,41.1,29.16,WSW,247,0.0,2.7,93,0.04,RMK 68.9/43.0,,0.51,WUHU21623XXSP,2013-01-31 00:13:00,
2013-01-30 19:18:00,42.8,40.9,29.15,WNW,292,3.8,3.8,93,0.04,RMK 68.9/43.0,,0.51,WUHU21623XXSP,2013-01-31 00:18:00,
2013-01-30 19:23:00,42.7,40.8,29.15,SSW,202,0.0,3.8,93,0.04,RMK 68.9/43.0,,0.51,WUHU21623XXSP,2013-01-31 00:23:00,
2013-01-30 19:28:00,42.3,40.4,29.16,WSW,247,5.4,5.4,93,0.04,RMK 68.9/43.0,,0.51,WUHU21623XXSP,2013-01-31 00:28:00,
2013-01-30 19:33:00,42.1,40.2,29.16,WSW,247,0.0,5.4,93,0.04,RMK 68.9/43.0,,0.51,WUHU21623XXSP,2013-01-31 00:33:00,
2013-01-30 19:38:00,42.1,40.2,29.14,WSW,247,0.0,5.1,93,0.04,RMK 69.1/44.0,,0.51,WUHU21623XXSP,2013-01-31 00:38:00,
2013-01-30 19:43:00,41.9,40.0,29.15,SW,225,0.0,5.1,93,0.02,RMK 69.1/43.0,,0.51,WUHU21623XXSP,2013-01-31 00:43:00,
2013-01-30 19:48:00,41.9,40.0,29.15,SSW,202,5.1,5.1,93,0.02,RMK 69.1/43.0,,0.51,WUHU21623XXSP,2013-01-31 00:48:00,
2013-01-30 19:53:00,41.9,40.0,29.15,WSW,247,0.0,5.1,93,0.02,RMK 69.1/43.0,,0.51,WUHU21623XXSP,2013-01-31 00:53:00,
2013-01-30 19:58:00,41.6,39.7,29.15,WSW,247,0.0,0.0,93,0.02,RMK 69.1/43.0,,0.51,WUHU21623XXSP,2013-01-31 00:58:00,
2013-01-30 20:03:00,41.6,39.7,29.16,West,270,4.9,4.9,93,0.02,RMK 69.1/43.0,,0.51,WUHU21623XXSP,2013-01-31 01:03:00,
2013-01-30 20:08:00,41.4,39.5,29.16,West,270,2.9,4.9,93,0.00,RMK 69.1/43.0,,0.51,WUHU21623XXSP,2013-01-31 01:08:00,
2013-01-30 20:13:00,41.4,39.5,29.16,West,270,6.3,6.3,93,0.00,RMK 69.1/42.0,,0.51,WUHU21623XXSP,2013-01-31 01:13:00,
2013-01-30 20:19:00,41.2,39.3,29.17,WSW,247,2.5,6.3,93,0.02,RMK 69.1/42.0,,0.53,WUHU21623XXSP,2013-01-31 01:19:00,
2013-01-30 20:25:00,41.0,39.1,29.17,West,270,5.8,7.2,93,0.02,RMK 69.1/42.0,,0.53,WUHU21623XXSP,2013-01-31 01:25:00,
2013-01-30 20:30:00,40.5,38.6,29.17,SW,225,2.7,7.2,93,0.04,RMK 69.3/42.0,,0.55,WUHU21623XXSP,2013-01-31 01:30:00,
2013-01-30 20:35:00,40.3,38.4,29.16,WSW,247,0.0,4.3,93,0.04,RMK 69.3/42.0,,0.55,WUHU21623XXSP,2013-01-31 01:35:00,
2013-01-30 20:40:00,40.1,38.2,29.16,SW,225,3.1,3.1,93,0.04,RMK 69.3/42.0,,0.55,WUHU21623XXSP,2013-01-31 01:40:00,
2013-01-30 20:45:00,39.6,37.7,29.16,SW,225,2.2,7.2,93,0.04,RMK 69.3/42.0,,0.55,WUHU21623XXSP,2013-01-31 01:45:00,
2013-01-30 20:50:00,39.4,37.5,29.16,NW,315,0.0,7.2,93,0.04,RMK 69.3/42.0,,0.55,WUHU21623XXSP,2013-01-31 01:50:00,
2013-01-30 20:55:00,39.4,37.5,29.15,WSW,247,0.0,0.0,93,0.04,RMK 69.1/42.0,,0.55,WUHU21623XXSP,2013-01-31 01:55:00,
2013-01-30 21:00:00,39.2,37.6,29.16,SSW,202,0.0,0.0,94,0.04,RMK 69.1/42.0,,0.55,WUHU21623XXSP,2013-01-31 02:00:00,
2013-01-30 21:05:00,39.1,37.5,29.16,SSW,202,2.2,2.2,94,0.04,RMK 69.1/42.0,,0.55,WUHU21623XXSP,2013-01-31 02:05:00,
2013-01-30 21:10:00,38.9,37.3,29.16,SSW,202,2.2,2.2,94,0.04,RMK 68.9/42.0,,0.55,WUHU21623XXSP,2013-01-31 02:10:00,
2013-01-30 21:15:00,38.5,36.6,29.16,SSE,157,3.4,4.7,93,0.04,RMK 68.9/42.0,,0.55,WUHU21623XXSP,2013-01-31 02:15:00,
2013-01-30 21:20:00,38.3,36.4,29.17,SSE,157,3.4,4.7,93,0.02,RMK 68.7/42.0,,0.55,WUHU21623XXSP,2013-01-31 02:20:00,
2013-01-30 21:25:00,38.0,36.1,29.17,WSW,247,6.0,6.0,93,0.00,RMK 68.7/42.0,,0.55,WUHU21623XXSP,2013-01-31 02:25:00,
2013-01-30 21:30:00,37.8,35.9,29.16,WSW,247,3.8,6.0,93,0.00,RMK 68.7/42.0,,0.55,WUHU21623XXSP,2013-01-31 02:30:00,
2013-01-30 21:35:00,37.6,35.7,29.16,West,270,3.6,3.8,93,0.00,RMK 68.7/42.0,,0.55,WUHU21623XXSP,2013-01-31 02:35:00,
2013-01-30 21:40:00,37.4,35.5,29.16,WSW,247,3.4,3.6,93,0.00,RMK 68.5/41.0,,0.55,WUHU21623XXSP,2013-01-31 02:40:00,
2013-01-30 21:45:00,37.3,35.4,29.17,West,270,5.8,5.8,93,0.00,RMK 68.5/41.0,,0.55,WUHU21623XXSP,2013-01-31 02:45:00,
2013-01-30 21:50:00,37.1,35.2,29.17,NW,315,2.2,5.8,93,0.00,RMK 68.4/41.0,,0.55,WUHU21623XXSP,2013-01-31 02:50:00,
2013-01-30 21:55:00,37.1,35.2,29.17,West,270,4.9,5.8,93,0.00,RMK 68.4/41.0,,0.55,WUHU21623XXSP,2013-01-31 02:55:00,
2013-01-30 22:00:00,36.9,35.0,29.17,WNW,292,2.7,4.9,93,0.00,RMK 68.4/41.0,,0.55,WUHU21623XXSP,2013-01-31 03:00:00,
2013-01-30 22:05:00,36.7,34.8,29.17,SW,225,1.6,2.7,93,0.00,RMK 68.4/41.0,,0.55,WUHU21623XXSP,2013-01-31 03:05:00,
2013-01-30 22:10:00,36.7,34.8,29.17,NW,315,0.0,2.7,93,0.00,RMK 68.2/41.0,,0.55,WUHU21623XXSP,2013-01-31 03:10:00,
2013-01-30 22:15:00,36.2,34.3,29.18,West,270,0.9,2.7,93,0.02,RMK 68.2/41.0,,0.57,WUHU21623XXSP,2013-01-31 03:15:00,
2013-01-30 22:20:00,36.0,34.1,29.18,West,270,3.1,3.1,93,0.02,RMK 68.0/41.0,,0.57,WUHU21623XXSP,2013-01-31 03:20:00,
2013-01-30 22:25:00,35.6,33.7,29.18,NNE,22,3.6,3.8,93,0.02,RMK 68.0/41.0,,0.57,WUHU21623XXSP,2013-01-31 03:25:00,
2013-01-30 22:30:00,35.1,33.2,29.19,WNW,292,8.5,8.5,93,0.02,RMK 68.0/41.0,,0.57,WUHU21623XXSP,2013-01-31 03:30:00,
2013-01-30 22:35:00,34.7,33.1,29.20,NNW,337,4.0,8.5,94,0.02,RMK 68.0/41.0,,0.57,WUHU21623XXSP,2013-01-31 03:35:00,
2013-01-30 22:40:00,34.4,32.8,29.20,NNW,337,5.1,5.1,94,0.02,RMK 68.0/41.0,,0.57,WUHU21623XXSP,2013-01-31 03:40:00,
2013-01-30 22:45:00,33.8,31.9,29.21,NW,315,5.4,5.6,93,0.02,RMK 67.8/40.0,,0.57,WUHU21623XXSP,2013-01-31 03:45:00,
2013-01-30 22:50:00,33.5,31.6,29.21,NW,315,5.6,5.6,93,0.02,RMK 67.8/40.0,,0.57,WUHU21623XXSP,2013-01-31 03:50:00,
2013-01-30 22:55:00,33.1,31.2,29.21,WNW,292,0.0,5.6,93,0.02,RMK 67.8/40.0,,0.57,WUHU21623XXSP,2013-01-31 03:55:00,
2013-01-30 23:00:00,32.6,30.8,29.22,North,0,2.9,3.8,93,0.02,RMK 67.8/40.0,,0.57,WUHU21623XXSP,2013-01-31 04:00:00,
2013-01-30 23:05:00,32.4,30.6,29.22,West,270,8.5,8.5,93,0.02,RMK 67.6/40.0,,0.57,WUHU21623XXSP,2013-01-31 04:05:00,
2013-01-30 23:10:00,32.4,30.6,29.23,WSW,247,5.8,8.5,93,0.00,RMK 67.6/40.0,,0.57,WUHU21623XXSP,2013-01-31 04:10:00,
2013-01-30 23:15:00,32.2,30.4,29.24,North,0,7.2,7.2,93,0.00,RMK 67.5/40.0,,0.57,WUHU21623XXSP,2013-01-31 04:15:00,
2013-01-30 23:20:00,31.9,30.1,29.24,WNW,292,6.9,7.2,93,0.00,RMK 67.5/39.0,,0.57,WUHU21623XXSP,2013-01-31 04:20:00,
2013-01-30 23:25:00,31.9,30.1,29.24,NW,315,5.4,6.9,93,0.00,RMK 67.5/39.0,,0.57,WUHU21623XXSP,2013-01-31 04:25:00,
2013-01-30 23:31:00,31.3,29.5,29.25,NW,315,5.6,6.9,93,0.02,RMK 67.3/39.0,,0.59,WUHU21623XXSP,2013-01-31 04:31:00,
2013-01-30 23:36:00,31.3,29.5,29.25,NNW,337,9.2,14.1,93,0.02,RMK 67.3/39.0,,0.59,WUHU21623XXSP,2013-01-31 04:36:00,
2013-01-30 23:41:00,31.1,29.3,29.25,NW,315,2.7,14.1,93,0.02,RMK 67.1/39.0,,0.59,WUHU21623XXSP,2013-01-31 04:41:00,
2013-01-30 23:46:00,31.0,28.9,29.25,NW,315,7.2,11.6,92,0.02,RMK 67.1/39.0,,0.59,WUHU21623XXSP,2013-01-31 04:46:00,
2013-01-30 23:51:00,30.8,28.7,29.26,NNE,22,12.8,12.8,92,0.02,RMK 66.9/39.0,,0.59,WUHU21623XXSP,2013-01-31 04:51:00,
2013-01-30 23:56:00,30.6,28.5,29.27,NW,315,7.8,12.8,92,0.02,RMK 66.9/39.0,,0.59,WUHU21623XXSP,2013-01-31 04:56:00,